Kansas Settlement, Arizona
Current Conditions -  °F | °C
As of 2:51 AM on Saturday 29 Nov 2014 (Local Time) from KSAD Reporting Station
Clear Clear  
Wind Chill: 39°   Ceiling: Unl
Heat Index: 39°   Visibility: 10mi
Dew Point: 19°   Wind: 3mph
Humidity: 45%   Direction: 140°SE
Pressure: 30.01"   Gusts: NA
Location:  32.5598°N, 110.08°W
Report Text: KSAD 290951Z AUTO 14003KT 10SM CLR 04/M07 A3001 RMK AO2 SLP140 T00391072
Loading
Personal Weather Stations






























Interactive Weather Map New forecast layout! Learn more

10-Day Weather Forecast

Advertisements
Track Severe Weather on mobile